Indianapolis, IN (46239)

16:21 EDT le 29 août 2014 (GMT -0400)
Wildcat Park-SE Side | Change Station
CLOSE
Current Station
Stations météorologiques personnelles
Location: Indianapolis, IN
Altitude: 850 ft
Stations météo à proximité

Alt. 850 ft 39.69 °N, 86.03 °W | Updated 4 seconds ago

Ciel dégagé
Ciel dégagé
87.2 ° F
Paraît 94 ° F
N
5.0
Vent Variable Vent de ESE
Gusts 14.0 mph

Aujourd'hui
Haut(e) -- | Bas -- ° F
--% Risque de précip.
Hier
Haut(e) -- | Bas -- ° F
Precip. -- pouce
7:09 AM 8:19 PM
Lune montante, 16% visible
Pression 29.95 pouce
Visibilité 10.0 Miles terrestres
Nuages Peu 3400 ft
Peu 30000 ft
indice de chaleur 94 ° F
Point de rosée 73 ° F
Humidité 62%
Précipitations 0.00 pouce
Profondeur de la couche neigeuse Non disponible.
UV 7 sur 12
Pollen 10.60 sur 12
Ozone Bon
PM2.5 Bon
Flu Activity Non disponible.
METAR KIND 291954Z 15011KT 10SM FEW034 FEW300 30/21 A2997 RMK AO2 SLP141 CB DSNT W MOV N T03000211

More Conditions Fewer Conditions

Pression 29.95 pouce
Visibilité 10.0 Miles terrestres
Nuages Peu 3400 ft
Peu 30000 ft
indice de chaleur 94 ° F
Point de rosée 73 ° F
Humidité 62%
Précipitations 0.00 pouce
Profondeur de la couche neigeuse Non disponible.
UV 7 sur 12
Pollen 10.60 sur 12
Ozone Bon
PM2.5 Bon
Flu Activity Non disponible.
METAR KIND 291954Z 15011KT 10SM FEW034 FEW300 30/21 A2997 RMK AO2 SLP141 CB DSNT W MOV N T03000211

More Conditions Fewer Conditions

10-Day Weather Forecast

Almanac

Astronomie

Aug. 29, 2014 Lever Coucher
Temps réel 07:09 EDT 20:19 EDT
Crépuscule civil 06:41 EDT 20:47 EDT
Crépuscule nautique 06:08 EDT 21:20 EDT
Crépuscule astronomique 05:33 EDT 21:55 EDT
Lune 10:57 EDT 22:17 EDT
Durée de lumière visible 14h 06m
Longueur du jour
13h 10m
Tomorrow will be 2m 28s shorter.
Lune montante, 16% of the Moon is Illuminated
Aujourd'hui
Lune montante
Sep 2
Premier quartier
Sep 8
Pleine lune
Sep 15
Dernier quartier
Sep 24
Nouveau

Extrêmes aujourd'hui

State Highs State Lows

Community

WunderPhotos

Upload Photos

1,748,337 Photos téléchargées !

WunderBlogs® & News

By Dr. Jeff Masters
Director of Meteorology, Weather Underground
By Kari Strenfel
Meteorologist, Weather Underground
By Christopher C. Burt
Weather Historian, Weather Underground
August 29, 2014
August 29, 2014
August 29, 2014

Nearby

Qualité de l'air

  Qualité de l'air Indice de la qualité de l'air Polluant
Hier Bon
OZONE
Hier Bon
PM10
Actuel Bon
PM2.5
Actuel Bon
OZONE
vendredi Moyen
PM2.5
vendredi Moyen
OZONE
samedi Moyen
PM2.5
samedi Bon
OZONE
dimanche Moyen
PM2.5
dimanche Bon
OZONE
lundi Moyen
PM2.5
lundi Bon
OZONE
mardi Moyen
PM2.5
mardi Bon
OZONE

Épaisseur de neige

Station Depth Altitude
Pas de nouvelles chutes de neige

Activité sismique

Ville Distance Mag. Time & Date
No recent earthquake activity has been reported nearby.
Minimum magnitude displayed is 2.5.

Températures des eaux côtières

Lieu Température
Aucun rapport de station

Stations météo à proximité